createdAt,value
2023-05-15T11:23:26.364Z,21.4096
2023-05-15T11:24:28.397Z,21.5954
2023-05-15T11:26:42.763Z,21.8431
2023-05-15T11:27:44.397Z,21.8488
2023-05-15T11:28:46.266Z,21.8908
2023-05-15T11:29:48.508Z,21.9950
2023-05-15T11:30:50.423Z,22.1604
2023-05-15T11:31:52.430Z,22.2785
2023-05-15T11:32:54.537Z,22.3631
2023-05-15T11:33:56.509Z,22.3754
2023-05-15T11:34:58.549Z,22.4096
2023-05-15T11:36:00.604Z,22.4735
2023-05-15T11:37:02.675Z,22.4881
2023-05-15T11:38:04.723Z,22.5254
2023-05-15T11:39:06.778Z,22.5673
2023-05-15T11:40:08.821Z,22.5896
2023-05-15T11:41:10.856Z,22.5381
2023-05-15T11:42:12.881Z,22.5704
2023-05-15T11:43:14.946Z,22.4619
2023-05-15T11:44:17.090Z,22.3862
2023-05-15T11:45:19.066Z,22.4396
2023-05-15T11:46:21.123Z,22.5335
2023-05-15T11:47:23.194Z,22.5758
2023-05-15T11:48:25.216Z,22.6550
2023-05-15T11:49:27.238Z,22.7431
2023-05-15T11:50:29.287Z,22.8438
2023-05-15T11:51:31.347Z,22.7835
2023-05-15T11:52:33.357Z,22.6773
2023-05-15T11:53:35.450Z,22.7054
2023-05-15T11:54:37.464Z,22.6662
2023-05-15T11:55:39.555Z,22.6912
2023-05-15T11:56:41.631Z,22.6419
2023-05-15T11:57:43.618Z,22.7396
2023-05-15T11:58:45.690Z,22.8512
2023-05-15T11:59:47.780Z,22.9192
2023-05-15T12:00:49.788Z,22.8992
2023-05-15T12:01:51.832Z,22.8542
2023-05-15T12:02:53.991Z,22.8196
2023-05-15T12:03:56.259Z,22.8273
2023-05-15T12:04:58.032Z,22.8104
2023-05-15T12:06:00.433Z,22.7765
2023-05-15T12:07:03.235Z,22.7642
2023-05-15T12:08:04.205Z,22.8265
2023-05-15T12:09:06.202Z,22.8246
2023-05-15T12:10:08.247Z,22.7992
2023-05-15T12:11:10.288Z,22.7846
2023-05-15T12:12:12.305Z,22.8308
2023-05-15T12:13:14.393Z,22.7362
2023-05-15T12:14:16.499Z,22.6031
2023-05-15T12:15:18.470Z,22.6612
2023-05-15T12:16:20.571Z,22.5992
2023-05-15T12:17:22.592Z,22.4627
2023-05-15T12:18:24.633Z,22.3485
2023-05-15T12:19:26.742Z,22.2965
2023-05-15T12:20:28.694Z,22.3019
2023-05-15T12:21:30.762Z,22.2465
2023-05-15T12:22:32.812Z,22.3142
2023-05-15T12:23:34.850Z,22.3615
2023-05-15T12:24:36.887Z,22.3838
2023-05-15T12:25:38.983Z,22.3788
2023-05-15T12:26:40.994Z,22.4108
2023-05-15T12:27:43.021Z,22.4819
2023-05-15T12:28:45.069Z,22.5923
2023-05-15T12:29:47.145Z,22.6304
2023-05-15T12:30:49.190Z,22.6600
2023-05-15T12:31:51.325Z,22.7731
2023-05-15T12:32:53.346Z,22.8454
2023-05-15T12:33:55.307Z,22.8612
2023-05-15T12:34:57.342Z,22.8465
2023-05-15T12:36:01.778Z,22.8415
2023-05-15T12:37:01.455Z,22.7985
2023-05-15T12:38:03.548Z,22.7069
2023-05-15T12:39:05.596Z,22.6262
2023-05-15T12:40:07.607Z,22.5804
2023-05-15T12:41:09.633Z,22.5969
2023-05-15T12:42:11.699Z,22.5558
2023-05-15T12:43:13.737Z,22.4819
2023-05-15T12:44:15.769Z,22.4727
2023-05-15T12:45:17.873Z,22.5135
2023-05-15T12:46:19.901Z,22.5146
2023-05-15T12:47:21.940Z,22.3865
2023-05-15T12:48:24.015Z,22.3281
2023-05-15T12:49:26.052Z,22.3246
2023-05-15T12:50:28.190Z,22.2965
2023-05-15T12:51:30.300Z,22.2585
2023-05-15T12:52:32.318Z,22.1427
2023-05-15T12:53:34.353Z,22.1969
2023-05-15T12:54:36.287Z,22.2038
2023-05-15T12:55:38.332Z,22.1377
2023-05-15T12:56:40.358Z,21.9604
2023-05-15T12:57:42.421Z,21.8812
2023-05-15T12:58:44.464Z,21.8931
2023-05-15T12:59:46.532Z,21.9250
2023-05-15T13:00:48.561Z,22.0808
2023-05-15T13:01:50.707Z,22.1365
2023-05-15T13:02:52.817Z,22.1500
2023-05-15T13:03:54.763Z,22.1919
2023-05-15T13:04:56.768Z,22.2223
2023-05-15T13:05:58.821Z,22.2208
2023-05-15T13:07:00.963Z,22.2858
2023-05-15T13:08:02.873Z,22.2908
2023-05-15T13:09:04.953Z,22.2454
2023-05-15T13:10:07.039Z,22.2542
2023-05-15T13:11:09.032Z,22.2831
2023-05-15T13:12:11.059Z,22.1400
2023-05-15T13:13:13.218Z,21.9742
2023-05-15T13:14:15.176Z,21.9212
2023-05-15T13:15:17.284Z,21.9904
2023-05-15T13:16:19.297Z,22.0177
2023-05-15T13:17:21.305Z,21.9415
2023-05-15T13:18:23.370Z,21.8700
2023-05-15T13:19:25.394Z,21.8092
2023-05-15T13:20:27.891Z,21.8023
2023-05-15T13:21:29.504Z,21.8681
2023-05-15T13:22:31.570Z,21.8285
2023-05-15T13:23:33.593Z,21.8431
2023-05-15T13:24:35.630Z,21.8738
2023-05-15T13:25:37.735Z,21.9019
2023-05-15T13:26:39.717Z,21.9388
2023-05-15T13:27:41.844Z,21.9027
2023-05-15T13:28:43.831Z,21.9577
2023-05-15T13:29:45.858Z,22.0412
2023-05-15T13:30:47.980Z,22.0285
2023-05-15T13:31:50.094Z,21.9515
2023-05-15T13:32:54.669Z,21.8450
2023-05-15T13:33:54.040Z,21.8635
2023-05-15T13:34:56.091Z,21.9796
2023-05-15T13:35:58.124Z,22.0500
2023-05-15T13:37:00.192Z,21.9873
2023-05-15T13:38:02.354Z,21.9769
2023-05-15T13:39:04.279Z,22.0031
2023-05-15T13:40:06.398Z,22.0081
2023-05-15T13:41:08.372Z,21.9912
2023-05-15T13:42:10.453Z,21.9258
2023-05-15T13:43:12.476Z,21.9204
2023-05-15T13:44:14.568Z,21.8615
2023-05-15T13:45:16.615Z,21.8596
2023-05-15T13:46:18.640Z,21.8942
2023-05-15T13:47:20.657Z,21.9962
2023-05-15T13:48:22.784Z,22.1150
2023-05-15T13:49:24.787Z,22.1277
2023-05-15T13:50:27.023Z,22.1154
2023-05-15T13:51:29.042Z,22.0677
2023-05-15T13:52:30.910Z,22.1192
2023-05-15T13:53:32.980Z,22.1485
2023-05-15T13:54:35.023Z,22.1900
2023-05-15T13:55:37.103Z,22.2815
2023-05-15T13:56:39.118Z,22.3408
2023-05-15T13:57:41.279Z,22.3115
2023-05-15T13:58:43.218Z,22.2688
2023-05-15T13:59:45.273Z,22.3077
2023-05-15T14:00:47.413Z,22.3262
2023-05-15T14:01:49.335Z,22.3273
2023-05-15T14:02:51.414Z,22.3196
2023-05-15T14:03:53.518Z,22.3119
2023-05-15T14:04:55.491Z,22.3135
2023-05-15T14:05:57.538Z,22.2635
2023-05-15T14:06:59.602Z,22.2585
2023-05-15T14:08:01.637Z,22.3181
2023-05-15T14:09:03.673Z,22.3208
2023-05-15T14:10:05.774Z,22.2769
2023-05-15T14:11:07.790Z,22.2742
2023-05-15T14:12:09.880Z,22.2431
2023-05-15T14:13:11.848Z,22.0927
2023-05-15T14:14:13.950Z,22.0073
2023-05-15T14:15:16.264Z,21.9088
2023-05-15T14:16:17.994Z,21.8385
2023-05-15T14:17:20.058Z,21.8173
2023-05-15T14:18:22.121Z,21.8596
2023-05-15T14:19:24.184Z,21.8650
2023-05-15T14:20:26.316Z,21.9004
2023-05-15T14:21:28.251Z,21.9373
2023-05-15T14:22:30.327Z,21.9688
2023-05-15T14:23:32.342Z,22.0062
2023-05-15T14:24:34.391Z,22.0885
2023-05-15T14:25:36.457Z,22.0712
2023-05-15T14:26:38.497Z,22.0604
2023-05-15T14:27:40.606Z,21.9892
2023-05-15T14:28:42.583Z,21.9319
2023-05-15T14:29:44.625Z,21.9404
2023-05-15T14:30:47.004Z,21.9577
2023-05-15T14:31:48.753Z,21.9658
2023-05-15T14:32:50.794Z,21.9054
2023-05-15T14:33:52.835Z,21.9054
2023-05-15T14:34:54.849Z,21.9262
2023-05-15T14:35:56.955Z,21.9465
2023-05-15T14:36:58.992Z,21.9562
2023-05-15T14:38:01.020Z,21.9623
2023-05-15T14:39:03.054Z,21.9592
2023-05-15T14:40:05.330Z,21.9442
2023-05-15T14:41:07.121Z,21.9154
2023-05-15T14:42:09.318Z,21.9531
2023-05-15T14:43:11.254Z,21.9035
2023-05-15T14:44:13.303Z,21.8862
2023-05-15T14:45:15.319Z,21.8681
2023-05-15T14:46:17.469Z,21.8654
2023-05-15T14:47:19.420Z,21.8808
2023-05-15T14:48:21.582Z,21.8673
2023-05-15T14:49:23.555Z,21.9085
2023-05-15T14:50:25.873Z,21.9504
2023-05-15T14:51:27.628Z,21.9800
2023-05-15T14:52:29.673Z,21.9827
2023-05-15T14:53:31.705Z,21.9873
2023-05-15T14:54:33.745Z,21.8704
2023-05-15T14:55:35.790Z,21.8250
2023-05-15T14:56:37.814Z,21.8504
2023-05-15T14:57:39.881Z,21.8054
2023-05-15T14:58:42.028Z,21.7538
2023-05-15T14:59:43.954Z,21.6331
2023-05-15T15:00:46.025Z,21.6627
2023-05-15T15:01:48.202Z,21.7185
2023-05-15T15:02:50.166Z,21.6777
2023-05-15T15:03:52.388Z,21.7242
2023-05-15T15:04:54.245Z,21.7519
2023-05-15T15:05:56.225Z,21.7469
2023-05-15T15:06:58.388Z,21.7912
2023-05-15T15:08:00.327Z,21.8188
2023-05-15T15:09:02.422Z,21.8531
2023-05-15T15:10:04.440Z,21.9008
2023-05-15T15:11:06.483Z,21.9388
2023-05-15T15:12:08.478Z,21.9354
2023-05-15T15:13:10.664Z,21.9623
2023-05-15T15:14:12.608Z,21.9350
2023-05-15T15:15:14.660Z,21.9465
2023-05-15T15:16:16.761Z,21.9465
2023-05-15T15:17:18.726Z,21.8569
2023-05-15T15:18:20.844Z,21.8554
2023-05-15T15:19:22.986Z,21.8773
2023-05-15T15:20:25.079Z,21.8446
2023-05-15T15:21:26.905Z,21.8038
2023-05-15T15:22:28.986Z,21.7250
2023-05-15T15:23:31.020Z,21.6885
2023-05-15T15:24:33.115Z,21.7288
2023-05-15T15:25:35.289Z,21.7531
2023-05-15T15:26:37.161Z,21.7677
2023-05-15T15:27:39.187Z,21.7915
2023-05-15T15:28:41.257Z,21.7762
2023-05-15T15:29:43.350Z,21.7954
2023-05-15T15:30:45.388Z,21.8088
2023-05-15T15:31:47.464Z,21.8435
2023-05-15T15:32:49.550Z,21.8373
2023-05-15T15:33:51.579Z,21.8312
2023-05-15T15:34:53.617Z,21.7792
2023-05-15T15:35:55.671Z,21.7777
2023-05-15T15:36:57.684Z,21.7765
2023-05-15T15:37:59.728Z,21.8273
2023-05-15T15:39:01.767Z,21.8635
2023-05-15T15:40:03.829Z,21.8550
2023-05-15T15:41:05.869Z,21.8212
2023-05-15T15:42:07.964Z,21.7915
2023-05-15T15:43:09.950Z,21.7392
2023-05-15T15:44:12.040Z,21.8269
2023-05-15T15:45:14.039Z,21.8719
2023-05-15T15:46:16.213Z,21.9542
2023-05-15T15:47:18.128Z,21.9588
2023-05-15T15:48:20.179Z,21.9715
2023-05-15T15:49:22.203Z,21.9319
2023-05-15T15:50:24.373Z,21.8527
2023-05-15T15:51:26.316Z,21.8773
2023-05-15T15:52:28.456Z,21.8988
2023-05-15T15:53:30.405Z,21.8827
2023-05-15T15:54:32.440Z,21.8877
2023-05-15T15:55:34.470Z,21.9142
2023-05-15T15:56:36.549Z,21.9146
2023-05-15T15:57:38.563Z,21.8835
2023-05-15T15:58:40.668Z,21.8469
2023-05-15T15:59:42.689Z,21.8454
2023-05-15T16:00:44.721Z,21.8762
2023-05-15T16:01:46.885Z,21.8785
2023-05-15T16:02:48.919Z,21.8462
2023-05-15T16:03:50.937Z,21.7865
2023-05-15T16:04:52.957Z,21.8200
2023-05-15T16:05:54.932Z,21.8615
2023-05-15T16:06:57.070Z,21.9096
2023-05-15T16:07:59.071Z,21.9327
2023-05-15T16:09:01.133Z,21.8704
2023-05-15T16:10:11.359Z,21.8065
2023-05-15T16:11:05.417Z,21.7896
2023-05-15T16:12:07.274Z,21.7850
2023-05-15T16:13:09.673Z,21.8177
2023-05-15T16:14:11.336Z,21.8281
2023-05-15T16:15:22.421Z,21.8062
2023-05-15T16:16:15.472Z,21.7692
2023-05-15T16:17:17.525Z,21.7158
2023-05-15T16:18:19.524Z,21.6312
2023-05-15T16:19:21.594Z,21.5285
2023-05-15T16:20:23.662Z,21.4950
2023-05-15T16:21:25.681Z,21.5369
2023-05-15T16:22:27.671Z,21.5192
2023-05-15T16:23:29.721Z,21.4858
2023-05-15T16:24:31.795Z,21.5638
2023-05-15T16:25:33.826Z,21.6177
2023-05-15T16:26:35.916Z,21.5842
2023-05-15T16:27:37.906Z,21.5631
2023-05-15T16:28:39.956Z,21.5958
2023-05-15T16:29:42.061Z,21.5665
2023-05-15T16:30:49.417Z,21.5950
2023-05-15T16:31:46.177Z,21.5854
2023-05-15T16:32:48.260Z,21.6262
2023-05-15T16:33:50.313Z,21.6254
2023-05-15T16:34:52.286Z,21.6058
2023-05-15T16:35:54.339Z,21.6527
2023-05-15T16:36:56.355Z,21.7181
2023-05-15T16:37:58.421Z,21.7592
2023-05-15T16:39:00.553Z,21.7473
2023-05-15T16:40:02.755Z,21.7115
2023-05-15T16:41:04.561Z,21.7158
2023-05-15T16:42:08.587Z,21.7454
2023-05-15T16:43:08.762Z,21.7896
2023-05-15T16:44:10.886Z,21.7996
2023-05-15T16:45:12.881Z,21.8215
2023-05-15T16:46:14.950Z,21.8392
2023-05-15T16:47:16.850Z,21.8077
2023-05-15T16:48:18.918Z,21.6962
2023-05-15T16:49:20.938Z,21.6108
2023-05-15T16:50:23.082Z,21.5658
2023-05-15T16:51:25.000Z,21.5350
2023-05-15T16:52:27.118Z,21.4888
2023-05-15T16:53:29.175Z,21.5473
2023-05-15T16:54:31.151Z,21.6115
2023-05-15T16:55:33.254Z,21.6562
2023-05-15T16:56:35.262Z,21.7327
2023-05-15T16:57:37.287Z,21.7546
2023-05-15T16:58:39.364Z,21.7573
2023-05-15T16:59:41.471Z,21.7612
2023-05-15T17:00:43.426Z,21.7831
2023-05-15T17:01:45.617Z,21.7742
2023-05-15T17:02:47.606Z,21.7712
2023-05-15T17:03:49.684Z,21.8069
2023-05-15T17:04:51.662Z,21.8077
2023-05-15T17:05:53.702Z,21.8035
2023-05-15T17:06:55.756Z,21.8042
2023-05-15T17:07:57.779Z,21.7973
2023-05-15T17:08:59.860Z,21.7708
2023-05-15T17:10:01.884Z,21.7696
2023-05-15T17:11:03.919Z,21.7281
2023-05-15T17:12:05.975Z,21.6958
2023-05-15T17:13:08.046Z,21.7385
2023-05-15T17:14:10.127Z,21.7692
2023-05-15T17:15:12.115Z,21.7992
2023-05-15T17:16:14.225Z,21.8231
2023-05-15T17:17:16.214Z,21.8235
2023-05-15T17:18:18.274Z,21.7373
2023-05-15T17:19:20.420Z,21.6123
2023-05-15T17:20:22.439Z,21.6254
2023-05-15T17:21:24.413Z,21.5977
2023-05-15T17:22:26.539Z,21.5446
2023-05-15T17:23:28.556Z,21.5465
2023-05-15T17:24:42.333Z,21.5908
2023-05-15T17:25:32.697Z,21.5981
2023-05-15T17:26:34.691Z,21.6562
2023-05-15T17:27:36.751Z,21.7131
2023-05-15T17:28:39.198Z,21.7473
2023-05-15T17:29:40.877Z,21.7981
2023-05-15T17:30:42.870Z,21.7573
2023-05-15T17:31:44.956Z,21.7442
2023-05-15T17:32:47.182Z,21.7815
2023-05-15T17:33:48.996Z,21.8046
2023-05-15T17:34:51.090Z,21.8008
2023-05-15T17:35:53.173Z,21.8077
2023-05-15T17:36:55.161Z,21.7873
2023-05-15T17:37:57.223Z,21.7608
2023-05-15T17:38:59.245Z,21.6931
2023-05-15T17:40:01.383Z,21.7142
2023-05-15T17:41:03.344Z,21.7512
2023-05-15T17:42:05.428Z,21.7462
2023-05-15T17:43:07.560Z,21.7604
2023-05-15T17:44:09.475Z,21.7146
2023-05-15T17:45:11.553Z,21.7208
2023-05-15T17:46:13.756Z,21.7669
2023-05-15T17:47:15.640Z,21.7538
2023-05-15T17:48:17.647Z,21.6781
2023-05-15T17:49:19.721Z,21.7085
2023-05-15T17:50:21.799Z,21.7838
2023-05-15T17:51:23.802Z,21.8262
2023-05-15T17:52:25.878Z,21.8423
2023-05-15T17:53:27.889Z,21.8615
2023-05-15T17:54:29.941Z,21.8708
2023-05-15T17:55:32.040Z,21.8588
2023-05-15T17:56:34.048Z,21.8508
2023-05-15T17:57:36.075Z,21.7885
2023-05-15T17:58:38.138Z,21.6896
2023-05-15T17:59:40.194Z,21.7131
2023-05-15T18:00:42.260Z,21.6869
2023-05-15T18:01:44.316Z,21.6369
2023-05-15T18:02:46.398Z,21.6300
2023-05-15T18:03:48.447Z,21.6200
2023-05-15T18:04:50.542Z,21.6169
2023-05-15T18:05:52.808Z,21.6035
2023-05-15T18:06:54.678Z,21.6277
2023-05-15T18:07:56.614Z,21.6492
2023-05-15T18:08:58.643Z,21.6838
2023-05-15T18:10:00.833Z,21.7054
2023-05-15T18:11:11.125Z,21.6885
2023-05-15T18:12:04.728Z,21.6488
2023-05-15T18:13:06.781Z,21.7154
2023-05-15T18:14:08.797Z,21.7723
2023-05-15T18:15:11.061Z,21.7158
2023-05-15T18:16:12.949Z,21.7046
2023-05-15T18:17:14.960Z,21.7358
2023-05-15T18:18:17.016Z,21.7723
2023-05-15T18:19:19.191Z,21.7777
2023-05-15T18:20:21.080Z,21.7896
2023-05-15T18:21:23.312Z,21.8042
2023-05-15T18:22:25.529Z,21.7827
2023-05-15T18:23:27.252Z,21.7635
2023-05-15T18:24:29.273Z,21.7927
2023-05-15T18:25:31.360Z,21.8038
2023-05-15T18:26:33.432Z,21.7365
2023-05-15T18:27:35.570Z,21.7450
2023-05-15T18:28:37.677Z,21.6885
2023-05-15T18:29:39.594Z,21.6223
2023-05-15T18:30:41.574Z,21.5731
2023-05-15T18:31:43.689Z,21.6085
2023-05-15T18:32:45.710Z,21.6481
2023-05-15T18:33:47.791Z,21.6165
2023-05-15T18:34:49.937Z,21.6127
2023-05-15T18:35:51.815Z,21.5800
2023-05-15T18:36:53.862Z,21.5712
2023-05-15T18:37:55.940Z,21.6092
2023-05-15T18:38:57.969Z,21.5992
2023-05-15T18:40:00.416Z,21.5919
2023-05-15T18:41:02.666Z,21.6585
2023-05-15T18:42:04.135Z,21.7346
2023-05-15T18:43:06.163Z,21.7873
2023-05-15T18:44:08.305Z,21.8035
2023-05-15T18:45:10.737Z,21.8323
2023-05-15T18:46:14.017Z,21.8535
2023-05-15T18:47:15.328Z,21.8681
2023-05-15T18:48:16.457Z,21.8646
2023-05-15T18:49:18.595Z,21.8665
2023-05-15T18:50:20.489Z,21.8573
2023-05-15T18:51:22.536Z,21.8488
2023-05-15T18:52:24.609Z,21.8481
2023-05-15T18:53:26.686Z,21.8377
2023-05-15T18:54:28.692Z,21.8342
2023-05-15T18:55:30.728Z,21.8400
2023-05-15T18:56:32.773Z,21.8450
2023-05-15T18:57:34.878Z,21.8504
2023-05-15T18:58:36.937Z,21.8392
2023-05-15T18:59:38.947Z,21.8323
2023-05-15T19:00:40.988Z,21.8235
2023-05-15T19:01:43.034Z,21.8296
2023-05-15T19:02:45.250Z,21.8300
2023-05-15T19:03:47.192Z,21.7858
2023-05-15T19:04:49.217Z,21.7485
2023-05-15T19:05:51.194Z,21.7527
2023-05-15T19:06:53.256Z,21.8015
2023-05-15T19:07:55.430Z,21.7962
2023-05-15T19:08:57.398Z,21.7581
2023-05-15T19:09:59.463Z,21.7331
2023-05-15T19:11:01.801Z,21.7504
2023-05-15T19:12:03.521Z,21.7031
2023-05-15T19:13:05.618Z,21.6919
2023-05-15T19:14:07.638Z,21.6935
2023-05-15T19:15:09.657Z,21.5735
2023-05-15T19:16:11.724Z,21.4169
2023-05-15T19:17:13.758Z,21.4646
2023-05-15T19:18:15.960Z,21.4538
2023-05-15T19:19:17.999Z,21.4404
2023-05-15T19:20:20.004Z,21.4512
2023-05-15T19:21:21.915Z,21.4700
2023-05-15T19:22:23.983Z,21.4596
2023-05-15T19:23:26.030Z,21.4381
2023-05-15T19:24:28.052Z,21.4323
2023-05-15T19:25:30.208Z,21.4315
2023-05-15T19:26:32.169Z,21.4781
2023-05-15T19:27:34.197Z,21.4915
2023-05-15T19:28:36.282Z,21.5004
2023-05-15T19:29:38.316Z,21.5292
2023-05-15T19:30:40.322Z,21.5977
2023-05-15T19:31:42.408Z,21.6535
2023-05-15T19:32:44.566Z,21.6973
2023-05-15T19:33:46.494Z,21.7288
2023-05-15T19:34:48.727Z,21.6431
2023-05-15T19:35:50.677Z,21.6265
2023-05-15T19:36:52.825Z,21.6181
2023-05-15T19:37:54.751Z,21.5288
2023-05-15T19:38:56.775Z,21.4708
2023-05-15T19:39:58.822Z,21.4969
2023-05-15T19:41:00.900Z,21.4873
2023-05-15T19:42:02.902Z,21.4954
2023-05-15T19:43:05.179Z,21.5396
2023-05-15T19:44:07.107Z,21.5735
2023-05-15T19:45:09.062Z,21.6146
2023-05-15T19:46:11.121Z,21.6900
2023-05-15T19:47:13.163Z,21.6727
2023-05-15T19:48:15.237Z,21.6400
2023-05-15T19:49:17.351Z,21.6738
2023-05-15T19:50:19.330Z,21.7215
2023-05-15T19:51:21.480Z,21.6719
2023-05-15T19:52:23.472Z,21.5673
2023-05-15T19:53:25.553Z,21.5658
2023-05-15T19:54:27.476Z,21.6358
2023-05-15T19:55:29.624Z,21.7085
2023-05-15T19:56:31.615Z,21.7792
2023-05-15T19:57:33.646Z,21.8142
2023-05-15T19:58:35.758Z,21.7462
2023-05-15T19:59:37.744Z,21.6131
2023-05-15T20:00:39.849Z,21.5277
2023-05-15T20:01:41.870Z,21.4177
2023-05-15T20:02:43.979Z,21.3973
2023-05-15T20:03:45.994Z,21.3938
2023-05-15T20:04:48.009Z,21.4208
2023-05-15T20:05:50.061Z,21.5019
2023-05-15T20:06:52.078Z,21.5900
2023-05-15T20:07:54.136Z,21.6208
2023-05-15T20:08:56.185Z,21.6531
2023-05-15T20:09:58.210Z,21.7088
2023-05-15T20:11:00.274Z,21.6477
2023-05-15T20:12:02.326Z,21.5877
2023-05-15T20:13:04.372Z,21.6581
2023-05-15T20:14:06.418Z,21.7396
2023-05-15T20:15:08.447Z,21.7758
2023-05-15T20:16:10.700Z,21.8085
2023-05-15T20:17:12.567Z,21.8331
2023-05-15T20:18:14.649Z,21.7685
2023-05-15T20:19:16.658Z,21.6300
2023-05-15T20:20:18.706Z,21.6131
2023-05-15T20:21:20.790Z,21.6231
2023-05-15T20:22:22.808Z,21.6523
2023-05-15T20:23:24.907Z,21.6150
2023-05-15T20:24:26.909Z,21.5923
2023-05-15T20:25:29.269Z,21.5323
2023-05-15T20:26:30.986Z,21.4969
2023-05-15T20:27:33.102Z,21.4877
2023-05-15T20:28:35.104Z,21.5181
2023-05-15T20:29:37.144Z,21.6088
2023-05-15T20:30:39.198Z,21.6450
2023-05-15T20:31:41.303Z,21.6746
2023-05-15T20:32:43.429Z,21.7092
2023-05-15T20:33:45.330Z,21.6823
2023-05-15T20:34:47.365Z,21.6273
2023-05-15T20:35:49.436Z,21.6519
2023-05-15T20:36:51.453Z,21.6923
2023-05-15T20:37:53.499Z,21.7331
2023-05-15T20:38:55.583Z,21.7312
2023-05-15T20:39:57.606Z,21.7473
2023-05-15T20:40:59.645Z,21.7496
2023-05-15T20:42:01.742Z,21.7712
2023-05-15T20:43:03.761Z,21.7523
2023-05-15T20:44:05.796Z,21.7100
2023-05-15T20:45:07.866Z,21.7177
2023-05-15T20:46:09.929Z,21.7281
2023-05-15T20:47:11.928Z,21.7396
2023-05-15T20:48:14.012Z,21.7350
2023-05-15T20:49:16.059Z,21.7373
2023-05-15T20:50:18.097Z,21.7300
2023-05-15T20:51:20.119Z,21.7204
2023-05-15T20:52:22.172Z,21.7065
2023-05-15T20:53:24.233Z,21.7031
2023-05-15T20:54:26.302Z,21.7192
2023-05-15T20:55:28.337Z,21.7046
2023-05-15T20:56:30.376Z,21.7065
2023-05-15T20:57:32.412Z,21.7262
2023-05-15T20:58:34.486Z,21.7250
2023-05-15T20:59:36.529Z,21.7242
